sensor_id;sensor_type;location;lat;lon;timestamp;temperature;humidity
38854;DHT22;24606;51.992;4.198;2023-12-07T00:02:46;17.60;71.20
38854;DHT22;24606;51.992;4.198;2023-12-07T00:07:48;17.60;71.20
38854;DHT22;24606;51.992;4.198;2023-12-07T00:12:51;17.60;71.20
38854;DHT22;24606;51.992;4.198;2023-12-07T00:17:53;17.50;71.20
38854;DHT22;24606;51.992;4.198;2023-12-07T00:22:55;17.50;71.10
38854;DHT22;24606;51.992;4.198;2023-12-07T00:27:58;17.50;71.10
38854;DHT22;24606;51.992;4.198;2023-12-07T00:33:00;17.50;71.10
38854;DHT22;24606;51.992;4.198;2023-12-07T00:38:02;17.40;71.10
38854;DHT22;24606;51.992;4.198;2023-12-07T00:43:08;17.40;71.10
38854;DHT22;24606;51.992;4.198;2023-12-07T00:48:10;17.40;71.10
38854;DHT22;24606;51.992;4.198;2023-12-07T00:53:12;17.40;71.00
38854;DHT22;24606;51.992;4.198;2023-12-07T00:58:15;17.40;71.00
38854;DHT22;24606;51.992;4.198;2023-12-07T01:03:17;17.40;70.90
38854;DHT22;24606;51.992;4.198;2023-12-07T01:08:19;17.40;70.90
38854;DHT22;24606;51.992;4.198;2023-12-07T01:13:23;17.40;70.90
38854;DHT22;24606;51.992;4.198;2023-12-07T01:18:25;17.30;70.90
38854;DHT22;24606;51.992;4.198;2023-12-07T01:23:27;17.30;70.80
38854;DHT22;24606;51.992;4.198;2023-12-07T01:28:31;17.30;70.80
38854;DHT22;24606;51.992;4.198;2023-12-07T01:33:33;17.30;70.80
38854;DHT22;24606;51.992;4.198;2023-12-07T01:38:35;17.30;70.80
38854;DHT22;24606;51.992;4.198;2023-12-07T01:43:44;17.30;70.70
38854;DHT22;24606;51.992;4.198;2023-12-07T01:48:46;17.30;71.00
38854;DHT22;24606;51.992;4.198;2023-12-07T01:53:50;17.30;71.20
38854;DHT22;24606;51.992;4.198;2023-12-07T01:58:53;17.30;71.20
38854;DHT22;24606;51.992;4.198;2023-12-07T02:03:56;17.40;71.40
38854;DHT22;24606;51.992;4.198;2023-12-07T02:08:58;17.40;71.40
38854;DHT22;24606;51.992;4.198;2023-12-07T02:14:01;17.30;71.40
38854;DHT22;24606;51.992;4.198;2023-12-07T02:19:22;17.40;71.60
38854;DHT22;24606;51.992;4.198;2023-12-07T02:24:27;17.30;71.40
38854;DHT22;24606;51.992;4.198;2023-12-07T02:29:33;17.20;71.30
38854;DHT22;24606;51.992;4.198;2023-12-07T02:34:35;17.20;71.30
38854;DHT22;24606;51.992;4.198;2023-12-07T02:39:38;17.20;71.30
38854;DHT22;24606;51.992;4.198;2023-12-07T02:44:41;17.20;71.30
38854;DHT22;24606;51.992;4.198;2023-12-07T02:49:44;17.10;71.20
38854;DHT22;24606;51.992;4.198;2023-12-07T02:54:46;17.10;71.20
38854;DHT22;24606;51.992;4.198;2023-12-07T02:59:50;17.10;71.10
38854;DHT22;24606;51.992;4.198;2023-12-07T03:04:52;17.10;71.00
38854;DHT22;24606;51.992;4.198;2023-12-07T03:09:54;17.10;71.00
38854;DHT22;24606;51.992;4.198;2023-12-07T03:14:57;17.00;71.00
38854;DHT22;24606;51.992;4.198;2023-12-07T03:19:59;17.10;71.00
38854;DHT22;24606;51.992;4.198;2023-12-07T03:25:01;17.10;71.00
38854;DHT22;24606;51.992;4.198;2023-12-07T03:30:06;17.00;70.90
38854;DHT22;24606;51.992;4.198;2023-12-07T03:35:08;17.00;70.90
38854;DHT22;24606;51.992;4.198;2023-12-07T03:40:11;17.00;70.90
38854;DHT22;24606;51.992;4.198;2023-12-07T03:45:14;16.90;70.90
38854;DHT22;24606;51.992;4.198;2023-12-07T03:50:16;17.00;70.90
38854;DHT22;24606;51.992;4.198;2023-12-07T03:55:18;16.90;70.90
38854;DHT22;24606;51.992;4.198;2023-12-07T04:15:30;16.90;70.10
38854;DHT22;24606;51.992;4.198;2023-12-07T04:20:32;16.90;70.70
38854;DHT22;24606;51.992;4.198;2023-12-07T04:25:34;16.90;70.70
38854;DHT22;24606;51.992;4.198;2023-12-07T04:30:38;16.90;70.30
38854;DHT22;24606;51.992;4.198;2023-12-07T04:35:40;17.00;70.10
38854;DHT22;24606;51.992;4.198;2023-12-07T04:40:42;17.20;69.60
38854;DHT22;24606;51.992;4.198;2023-12-07T04:45:45;17.40;69.30
38854;DHT22;24606;51.992;4.198;2023-12-07T04:50:47;17.60;69.10
38854;DHT22;24606;51.992;4.198;2023-12-07T04:55:49;17.70;68.80
38854;DHT22;24606;51.992;4.198;2023-12-07T05:00:53;17.90;68.60
38854;DHT22;24606;51.992;4.198;2023-12-07T05:05:55;17.90;68.40
38854;DHT22;24606;51.992;4.198;2023-12-07T05:10:57;18.10;68.30
38854;DHT22;24606;51.992;4.198;2023-12-07T05:16:00;18.10;68.20
38854;DHT22;24606;51.992;4.198;2023-12-07T05:21:04;18.10;68.20
38854;DHT22;24606;51.992;4.198;2023-12-07T05:26:06;18.20;68.30
38854;DHT22;24606;51.992;4.198;2023-12-07T05:31:15;18.20;68.30
38854;DHT22;24606;51.992;4.198;2023-12-07T05:36:18;18.20;68.40
38854;DHT22;24606;51.992;4.198;2023-12-07T05:41:20;18.20;68.30
38854;DHT22;24606;51.992;4.198;2023-12-07T05:46:23;18.20;68.40
38854;DHT22;24606;51.992;4.198;2023-12-07T05:51:25;18.10;68.50
38854;DHT22;24606;51.992;4.198;2023-12-07T05:56:27;18.10;68.60
38854;DHT22;24606;51.992;4.198;2023-12-07T06:01:31;18.00;68.50
38854;DHT22;24606;51.992;4.198;2023-12-07T06:06:32;18.00;68.60
38854;DHT22;24606;51.992;4.198;2023-12-07T06:11:34;18.00;68.70
38854;DHT22;24606;51.992;4.198;2023-12-07T06:16:38;18.00;68.70
38854;DHT22;24606;51.992;4.198;2023-12-07T06:21:40;18.00;68.70
38854;DHT22;24606;51.992;4.198;2023-12-07T06:26:42;18.00;68.70
38854;DHT22;24606;51.992;4.198;2023-12-07T06:31:45;18.00;69.20
38854;DHT22;24606;51.992;4.198;2023-12-07T06:36:47;18.00;68.70
38854;DHT22;24606;51.992;4.198;2023-12-07T06:41:49;18.00;68.70
38854;DHT22;24606;51.992;4.198;2023-12-07T06:46:52;18.00;68.90
38854;DHT22;24606;51.992;4.198;2023-12-07T06:51:54;18.00;68.90
38854;DHT22;24606;51.992;4.198;2023-12-07T06:56:56;18.00;68.90
38854;DHT22;24606;51.992;4.198;2023-12-07T07:02:00;17.90;69.20
38854;DHT22;24606;51.992;4.198;2023-12-07T07:07:02;17.90;69.10
38854;DHT22;24606;51.992;4.198;2023-12-07T07:12:05;17.80;69.20
38854;DHT22;24606;51.992;4.198;2023-12-07T07:17:08;17.80;69.40
38854;DHT22;24606;51.992;4.198;2023-12-07T07:22:10;17.80;69.40
38854;DHT22;24606;51.992;4.198;2023-12-07T07:27:12;17.80;69.10
38854;DHT22;24606;51.992;4.198;2023-12-07T07:32:16;17.80;69.10
38854;DHT22;24606;51.992;4.198;2023-12-07T07:37:17;17.80;69.30
38854;DHT22;24606;51.992;4.198;2023-12-07T07:42:20;17.80;68.90
38854;DHT22;24606;51.992;4.198;2023-12-07T07:47:23;17.70;69.20
38854;DHT22;24606;51.992;4.198;2023-12-07T07:52:25;17.70;69.20
38854;DHT22;24606;51.992;4.198;2023-12-07T07:57:27;17.70;69.40
38854;DHT22;24606;51.992;4.198;2023-12-07T08:02:31;17.60;69.50
38854;DHT22;24606;51.992;4.198;2023-12-07T08:07:33;17.60;69.40
38854;DHT22;24606;51.992;4.198;2023-12-07T08:12:35;17.60;69.40
38854;DHT22;24606;51.992;4.198;2023-12-07T08:17:38;17.50;69.70
38854;DHT22;24606;51.992;4.198;2023-12-07T08:22:41;17.50;69.60
38854;DHT22;24606;51.992;4.198;2023-12-07T08:27:43;17.50;69.30
38854;DHT22;24606;51.992;4.198;2023-12-07T08:32:48;17.50;69.50
38854;DHT22;24606;51.992;4.198;2023-12-07T08:37:50;17.50;69.40
38854;DHT22;24606;51.992;4.198;2023-12-07T08:42:54;17.40;69.50
38854;DHT22;24606;51.992;4.198;2023-12-07T08:47:57;17.40;69.60
38854;DHT22;24606;51.992;4.198;2023-12-07T08:52:59;17.40;69.50
38854;DHT22;24606;51.992;4.198;2023-12-07T08:58:01;17.40;69.60
38854;DHT22;24606;51.992;4.198;2023-12-07T09:03:06;17.40;70.10
38854;DHT22;24606;51.992;4.198;2023-12-07T09:08:08;17.40;69.70
38854;DHT22;24606;51.992;4.198;2023-12-07T09:13:10;17.30;69.90
38854;DHT22;24606;51.992;4.198;2023-12-07T09:18:13;17.30;70.10
38854;DHT22;24606;51.992;4.198;2023-12-07T09:23:16;17.20;69.90
38854;DHT22;24606;51.992;4.198;2023-12-07T09:28:18;17.20;70.40
38854;DHT22;24606;51.992;4.198;2023-12-07T09:33:21;17.20;70.70
38854;DHT22;24606;51.992;4.198;2023-12-07T09:38:23;17.20;71.00
38854;DHT22;24606;51.992;4.198;2023-12-07T09:43:27;17.20;71.20
38854;DHT22;24606;51.992;4.198;2023-12-07T09:48:31;17.20;71.50
38854;DHT22;24606;51.992;4.198;2023-12-07T09:53:34;17.30;71.60
38854;DHT22;24606;51.992;4.198;2023-12-07T09:58:36;17.20;71.50
38854;DHT22;24606;51.992;4.198;2023-12-07T10:03:39;17.20;71.60
38854;DHT22;24606;51.992;4.198;2023-12-07T10:08:42;17.20;71.60
38854;DHT22;24606;51.992;4.198;2023-12-07T10:13:47;17.20;71.60
38854;DHT22;24606;51.992;4.198;2023-12-07T10:18:52;17.20;71.70
38854;DHT22;24606;51.992;4.198;2023-12-07T10:23:54;17.20;71.70
38854;DHT22;24606;51.992;4.198;2023-12-07T10:28:56;17.20;71.70
38854;DHT22;24606;51.992;4.198;2023-12-07T10:34:01;17.20;71.40
38854;DHT22;24606;51.992;4.198;2023-12-07T10:39:03;17.30;71.90
38854;DHT22;24606;51.992;4.198;2023-12-07T10:44:08;17.30;71.20
38854;DHT22;24606;51.992;4.198;2023-12-07T10:49:17;17.20;71.20
38854;DHT22;24606;51.992;4.198;2023-12-07T10:54:22;17.20;71.20
38854;DHT22;24606;51.992;4.198;2023-12-07T10:59:31;17.20;71.10
38854;DHT22;24606;51.992;4.198;2023-12-07T11:04:35;17.20;71.40
38854;DHT22;24606;51.992;4.198;2023-12-07T11:09:41;17.20;71.50
38854;DHT22;24606;51.992;4.198;2023-12-07T11:14:46;17.20;71.60
38854;DHT22;24606;51.992;4.198;2023-12-07T11:19:50;17.20;71.60
38854;DHT22;24606;51.992;4.198;2023-12-07T11:24:54;17.20;71.50
38854;DHT22;24606;51.992;4.198;2023-12-07T11:29:59;17.20;71.50
38854;DHT22;24606;51.992;4.198;2023-12-07T11:35:04;17.20;71.40
38854;DHT22;24606;51.992;4.198;2023-12-07T11:40:07;17.20;71.30
38854;DHT22;24606;51.992;4.198;2023-12-07T11:45:10;17.20;71.10
38854;DHT22;24606;51.992;4.198;2023-12-07T11:50:14;17.20;70.90
38854;DHT22;24606;51.992;4.198;2023-12-07T11:55:16;17.20;70.70
38854;DHT22;24606;51.992;4.198;2023-12-07T12:00:19;17.20;70.60
38854;DHT22;24606;51.992;4.198;2023-12-07T12:05:22;17.20;70.80
38854;DHT22;24606;51.992;4.198;2023-12-07T12:10:24;17.30;71.90
38854;DHT22;24606;51.992;4.198;2023-12-07T12:15:27;17.40;71.00
38854;DHT22;24606;51.992;4.198;2023-12-07T12:20:31;17.30;71.10
38854;DHT22;24606;51.992;4.198;2023-12-07T12:25:34;17.20;71.20
38854;DHT22;24606;51.992;4.198;2023-12-07T12:30:35;17.20;71.30
38854;DHT22;24606;51.992;4.198;2023-12-07T12:35:39;17.20;71.30
38854;DHT22;24606;51.992;4.198;2023-12-07T12:40:41;17.20;71.30
38854;DHT22;24606;51.992;4.198;2023-12-07T12:45:43;17.20;71.40
38854;DHT22;24606;51.992;4.198;2023-12-07T12:50:47;17.20;71.50
38854;DHT22;24606;51.992;4.198;2023-12-07T12:55:49;17.10;71.60
38854;DHT22;24606;51.992;4.198;2023-12-07T13:00:52;17.10;71.60
38854;DHT22;24606;51.992;4.198;2023-12-07T13:05:55;17.10;71.70
38854;DHT22;24606;51.992;4.198;2023-12-07T13:10:57;17.00;71.60
38854;DHT22;24606;51.992;4.198;2023-12-07T13:15:59;17.00;71.80
38854;DHT22;24606;51.992;4.198;2023-12-07T13:21:02;17.00;71.70
38854;DHT22;24606;51.992;4.198;2023-12-07T13:26:05;17.00;71.70
38854;DHT22;24606;51.992;4.198;2023-12-07T13:31:07;17.00;71.90
38854;DHT22;24606;51.992;4.198;2023-12-07T13:36:10;17.20;71.70
38854;DHT22;24606;51.992;4.198;2023-12-07T13:41:13;17.30;71.70
38854;DHT22;24606;51.992;4.198;2023-12-07T13:46:15;17.50;71.30
38854;DHT22;24606;51.992;4.198;2023-12-07T13:51:18;17.80;71.50
38854;DHT22;24606;51.992;4.198;2023-12-07T13:56:21;18.00;70.70
38854;DHT22;24606;51.992;4.198;2023-12-07T14:01:24;18.10;70.60
38854;DHT22;24606;51.992;4.198;2023-12-07T14:06:28;18.20;70.10
38854;DHT22;24606;51.992;4.198;2023-12-07T14:11:30;18.20;70.10
38854;DHT22;24606;51.992;4.198;2023-12-07T14:16:32;18.30;69.50
38854;DHT22;24606;51.992;4.198;2023-12-07T14:21:35;18.30;69.30
38854;DHT22;24606;51.992;4.198;2023-12-07T14:26:37;18.30;69.50
38854;DHT22;24606;51.992;4.198;2023-12-07T14:31:40;18.20;69.60
38854;DHT22;24606;51.992;4.198;2023-12-07T14:36:43;18.20;69.60
38854;DHT22;24606;51.992;4.198;2023-12-07T14:41:46;18.20;69.60
38854;DHT22;24606;51.992;4.198;2023-12-07T14:46:48;18.10;69.90
38854;DHT22;24606;51.992;4.198;2023-12-07T14:51:54;18.10;70.00
38854;DHT22;24606;51.992;4.198;2023-12-07T14:56:57;18.20;70.10
38854;DHT22;24606;51.992;4.198;2023-12-07T15:01:59;18.20;69.90
38854;DHT22;24606;51.992;4.198;2023-12-07T15:07:02;18.30;69.90
38854;DHT22;24606;51.992;4.198;2023-12-07T15:12:06;18.20;69.80
38854;DHT22;24606;51.992;4.198;2023-12-07T15:17:08;18.20;69.80
38854;DHT22;24606;51.992;4.198;2023-12-07T15:22:12;18.20;69.90
38854;DHT22;24606;51.992;4.198;2023-12-07T15:27:14;18.20;69.80
38854;DHT22;24606;51.992;4.198;2023-12-07T15:32:16;18.30;69.80
38854;DHT22;24606;51.992;4.198;2023-12-07T15:37:19;18.20;69.90
38854;DHT22;24606;51.992;4.198;2023-12-07T15:42:21;18.20;69.90
38854;DHT22;24606;51.992;4.198;2023-12-07T15:47:23;18.20;70.10
38854;DHT22;24606;51.992;4.198;2023-12-07T15:52:26;18.20;70.00
38854;DHT22;24606;51.992;4.198;2023-12-07T15:57:28;18.20;69.90
38854;DHT22;24606;51.992;4.198;2023-12-07T16:02:30;18.10;70.00
38854;DHT22;24606;51.992;4.198;2023-12-07T16:07:34;18.10;70.10
38854;DHT22;24606;51.992;4.198;2023-12-07T16:12:39;18.10;70.10
38854;DHT22;24606;51.992;4.198;2023-12-07T16:17:41;18.00;70.30
38854;DHT22;24606;51.992;4.198;2023-12-07T16:22:45;18.00;70.20
38854;DHT22;24606;51.992;4.198;2023-12-07T16:27:46;18.00;70.10
38854;DHT22;24606;51.992;4.198;2023-12-07T16:32:48;18.00;70.20
38854;DHT22;24606;51.992;4.198;2023-12-07T16:37:52;18.10;70.20
38854;DHT22;24606;51.992;4.198;2023-12-07T16:42:54;18.10;70.30
38854;DHT22;24606;51.992;4.198;2023-12-07T16:47:57;18.00;70.20
38854;DHT22;24606;51.992;4.198;2023-12-07T16:53:00;17.90;70.10
38854;DHT22;24606;51.992;4.198;2023-12-07T16:58:02;17.90;70.50
38854;DHT22;24606;51.992;4.198;2023-12-07T17:03:04;17.90;70.40
38854;DHT22;24606;51.992;4.198;2023-12-07T17:08:08;17.60;70.30
38854;DHT22;24606;51.992;4.198;2023-12-07T17:13:11;17.40;70.90
38854;DHT22;24606;51.992;4.198;2023-12-07T17:18:13;17.60;71.20
38854;DHT22;24606;51.992;4.198;2023-12-07T17:23:17;17.60;71.00
38854;DHT22;24606;51.992;4.198;2023-12-07T17:28:19;17.50;71.20
38854;DHT22;24606;51.992;4.198;2023-12-07T17:33:21;17.50;71.10
38854;DHT22;24606;51.992;4.198;2023-12-07T17:38:24;17.40;71.30
38854;DHT22;24606;51.992;4.198;2023-12-07T17:43:26;17.40;71.20
38854;DHT22;24606;51.992;4.198;2023-12-07T17:48:29;17.40;71.20
38854;DHT22;24606;51.992;4.198;2023-12-07T17:53:32;17.50;71.40
38854;DHT22;24606;51.992;4.198;2023-12-07T17:58:34;17.60;71.60
38854;DHT22;24606;51.992;4.198;2023-12-07T18:03:36;17.50;71.60
38854;DHT22;24606;51.992;4.198;2023-12-07T18:08:39;17.40;71.50
38854;DHT22;24606;51.992;4.198;2023-12-07T18:13:41;17.20;72.30
38854;DHT22;24606;51.992;4.198;2023-12-07T18:18:43;17.20;72.20
38854;DHT22;24606;51.992;4.198;2023-12-07T18:23:47;17.20;72.00
38854;DHT22;24606;51.992;4.198;2023-12-07T18:28:49;17.30;72.20
38854;DHT22;24606;51.992;4.198;2023-12-07T18:33:50;17.40;72.10
38854;DHT22;24606;51.992;4.198;2023-12-07T18:38:54;17.60;72.10
38854;DHT22;24606;51.992;4.198;2023-12-07T18:43:56;17.80;71.50
38854;DHT22;24606;51.992;4.198;2023-12-07T18:48:58;17.80;71.40
38854;DHT22;24606;51.992;4.198;2023-12-07T18:54:02;18.00;71.10
38854;DHT22;24606;51.992;4.198;2023-12-07T18:59:04;18.00;71.20
38854;DHT22;24606;51.992;4.198;2023-12-07T19:04:07;18.20;71.40
38854;DHT22;24606;51.992;4.198;2023-12-07T19:09:10;18.20;71.30
38854;DHT22;24606;51.992;4.198;2023-12-07T19:14:13;18.20;71.60
38854;DHT22;24606;51.992;4.198;2023-12-07T19:19:16;18.20;71.50
38854;DHT22;24606;51.992;4.198;2023-12-07T19:24:20;18.20;71.90
38854;DHT22;24606;51.992;4.198;2023-12-07T19:29:22;18.20;72.00
38854;DHT22;24606;51.992;4.198;2023-12-07T19:34:24;18.20;72.10
38854;DHT22;24606;51.992;4.198;2023-12-07T19:39:29;18.20;72.10
38854;DHT22;24606;51.992;4.198;2023-12-07T19:44:34;18.20;72.10
38854;DHT22;24606;51.992;4.198;2023-12-07T19:49:35;18.20;72.30
38854;DHT22;24606;51.992;4.198;2023-12-07T19:54:39;18.20;72.20
38854;DHT22;24606;51.992;4.198;2023-12-07T19:59:41;18.20;72.00
38854;DHT22;24606;51.992;4.198;2023-12-07T20:04:43;18.20;72.00
38854;DHT22;24606;51.992;4.198;2023-12-07T20:09:46;18.20;72.00
38854;DHT22;24606;51.992;4.198;2023-12-07T20:14:48;18.20;72.00
38854;DHT22;24606;51.992;4.198;2023-12-07T20:19:51;18.20;72.00
38854;DHT22;24606;51.992;4.198;2023-12-07T20:24:54;18.10;71.90
38854;DHT22;24606;51.992;4.198;2023-12-07T20:29:59;18.10;71.80
38854;DHT22;24606;51.992;4.198;2023-12-07T20:35:01;18.00;72.10
38854;DHT22;24606;51.992;4.198;2023-12-07T20:40:06;18.00;72.00
38854;DHT22;24606;51.992;4.198;2023-12-07T20:45:09;18.00;71.90
38854;DHT22;24606;51.992;4.198;2023-12-07T20:50:11;18.00;71.90
38854;DHT22;24606;51.992;4.198;2023-12-07T20:55:14;18.10;71.90
38854;DHT22;24606;51.992;4.198;2023-12-07T21:00:17;18.10;71.90
38854;DHT22;24606;51.992;4.198;2023-12-07T21:05:19;18.10;71.70
38854;DHT22;24606;51.992;4.198;2023-12-07T21:10:23;18.10;71.60
38854;DHT22;24606;51.992;4.198;2023-12-07T21:15:25;18.10;71.70
38854;DHT22;24606;51.992;4.198;2023-12-07T21:20:27;18.10;71.60
38854;DHT22;24606;51.992;4.198;2023-12-07T21:25:32;18.10;71.50
38854;DHT22;24606;51.992;4.198;2023-12-07T21:30:34;18.10;71.80
38854;DHT22;24606;51.992;4.198;2023-12-07T21:35:39;18.00;71.90
38854;DHT22;24606;51.992;4.198;2023-12-07T21:40:42;18.10;71.90
38854;DHT22;24606;51.992;4.198;2023-12-07T21:45:44;18.00;71.80
38854;DHT22;24606;51.992;4.198;2023-12-07T21:50:46;18.00;72.50
38854;DHT22;24606;51.992;4.198;2023-12-07T21:55:49;18.00;72.00
38854;DHT22;24606;51.992;4.198;2023-12-07T22:00:52;18.00;72.00
38854;DHT22;24606;51.992;4.198;2023-12-07T22:05:54;17.90;72.00
38854;DHT22;24606;51.992;4.198;2023-12-07T22:10:57;17.90;72.00
38854;DHT22;24606;51.992;4.198;2023-12-07T22:16:01;17.90;72.00
38854;DHT22;24606;51.992;4.198;2023-12-07T22:21:03;17.90;71.90
38854;DHT22;24606;51.992;4.198;2023-12-07T22:26:07;17.90;72.00
38854;DHT22;24606;51.992;4.198;2023-12-07T22:31:10;17.90;72.00
38854;DHT22;24606;51.992;4.198;2023-12-07T22:36:13;17.80;71.90
38854;DHT22;24606;51.992;4.198;2023-12-07T22:41:17;17.80;71.80
38854;DHT22;24606;51.992;4.198;2023-12-07T22:46:19;17.80;72.00
38854;DHT22;24606;51.992;4.198;2023-12-07T22:51:21;17.80;72.00
38854;DHT22;24606;51.992;4.198;2023-12-07T22:56:24;17.70;72.00
38854;DHT22;24606;51.992;4.198;2023-12-07T23:01:26;17.70;72.00
38854;DHT22;24606;51.992;4.198;2023-12-07T23:06:28;17.70;72.00
38854;DHT22;24606;51.992;4.198;2023-12-07T23:11:31;17.70;72.20
38854;DHT22;24606;51.992;4.198;2023-12-07T23:16:33;17.70;72.20
38854;DHT22;24606;51.992;4.198;2023-12-07T23:21:35;17.60;72.20
38854;DHT22;24606;51.992;4.198;2023-12-07T23:26:41;17.60;72.30
38854;DHT22;24606;51.992;4.198;2023-12-07T23:31:44;17.60;72.30
38854;DHT22;24606;51.992;4.198;2023-12-07T23:36:46;17.60;72.30
38854;DHT22;24606;51.992;4.198;2023-12-07T23:41:51;17.50;72.10
38854;DHT22;24606;51.992;4.198;2023-12-07T23:46:53;17.50;72.20
38854;DHT22;24606;51.992;4.198;2023-12-07T23:51:56;17.50;72.20
38854;DHT22;24606;51.992;4.198;2023-12-07T23:56:59;17.60;72.30
